Time;durP1;ratioP1;P1;durP2;ratioP2;P2;SDS_P1;SDS_P2;PMS_P1;PMS_P2;Temp;Humidity;BMP_temperature;BMP_pressure;BME280_temperature;BME280_humidity;BME280_pressure;Samples;Min_cycle;Max_cycle;Signal;HPM_P1;HPM_P2
2023/08/09 00:03:00;;;;;;;5.87;5.37;;;15.50;99.90;;;;;;5118146;22;20493;-65
2023/08/09 00:05:27;;;;;;;7.57;6.87;;;15.50;99.90;;;;;;5101194;28;20446;-65
2023/08/09 00:07:53;;;;;;;7.03;6.33;;;15.50;99.90;;;;;;5087441;28;20443;-65
2023/08/09 00:10:21;;;;;;;4.90;4.57;;;15.40;99.90;;;;;;5088335;28;20435;-65
2023/08/09 00:12:48;;;;;;;6.20;5.70;;;15.40;99.90;;;;;;5096265;28;20469;-66
2023/08/09 00:15:16;;;;;;;7.93;6.77;;;15.40;99.90;;;;;;5101025;28;20525;-65
2023/08/09 00:17:43;;;;;;;8.47;5.90;;;15.40;99.90;;;;;;5095643;28;20438;-65
2023/08/09 00:20:11;;;;;;;6.73;6.13;;;15.40;99.90;;;;;;5079291;28;21019;-66
2023/08/09 00:22:38;;;;;;;6.93;6.30;;;15.50;99.90;;;;;;5085612;28;20496;-66
2023/08/09 00:25:06;;;;;;;6.03;5.53;;;15.40;99.90;;;;;;5103455;28;20568;-66
2023/08/09 00:27:33;;;;;;;8.53;7.23;;;15.50;99.90;;;;;;5107618;28;20565;-66
2023/08/09 00:30:00;;;;;;;10.60;7.13;;;15.40;99.90;;;;;;5108520;28;20559;-66
2023/08/09 00:32:28;;;;;;;7.47;6.77;;;15.40;99.90;;;;;;5108192;28;20471;-66
2023/08/09 00:34:55;;;;;;;7.50;6.80;;;15.40;99.90;;;;;;5107607;28;20582;-65
2023/08/09 00:37:22;;;;;;;7.33;6.50;;;15.50;99.90;;;;;;5095250;28;20820;-66
2023/08/09 00:39:49;;;;;;;7.27;6.53;;;15.50;99.90;;;;;;5099643;28;20490;-66
2023/08/09 00:42:16;;;;;;;6.80;6.23;;;15.40;99.90;;;;;;5098966;28;21084;-66
2023/08/09 00:44:43;;;;;;;7.03;6.53;;;15.50;99.90;;;;;;5101624;28;20447;-66
2023/08/09 00:47:11;;;;;;;6.57;5.97;;;15.50;99.90;;;;;;5070267;28;20453;-67
2023/08/09 00:49:40;;;;;;;7.60;6.90;;;15.50;99.90;;;;;;5084150;28;20542;-67
2023/08/09 00:52:07;;;;;;;7.30;6.60;;;15.50;99.90;;;;;;5090719;28;20552;-66
2023/08/09 00:54:34;;;;;;;7.23;6.10;;;15.50;99.90;;;;;;5091422;28;20448;-66
2023/08/09 00:57:02;;;;;;;7.93;7.13;;;15.50;99.90;;;;;;5090932;28;20540;-66
2023/08/09 00:59:30;;;;;;;7.13;6.53;;;15.50;99.90;;;;;;5091451;28;20544;-66
2023/08/09 01:01:57;;;;;;;7.80;7.20;;;15.50;99.90;;;;;;5091269;28;20566;-66
2023/08/09 01:04:24;;;;;;;7.07;6.37;;;15.50;99.90;;;;;;5091112;28;20833;-66
2023/08/09 01:06:57;;;;;;;6.63;6.03;;;15.50;99.90;;;;;;5090680;28;20474;-66
2023/08/09 01:09:36;;;;;;;7.60;6.93;;;15.50;99.90;;;;;;5091362;28;20440;-66
2023/08/09 01:12:07;;;;;;;7.30;6.70;;;15.50;99.90;;;;;;5091240;28;20462;-66
2023/08/09 01:14:36;;;;;;;8.50;6.37;;;15.50;99.90;;;;;;5091119;28;20951;-66
2023/08/09 01:17:06;;;;;;;7.53;7.03;;;15.50;99.90;;;;;;5090117;28;20442;-66
2023/08/09 01:19:41;;;;;;;6.87;6.27;;;15.50;99.90;;;;;;5091305;28;20572;-66
2023/08/09 01:22:15;;;;;;;6.90;6.30;;;15.50;99.90;;;;;;5090961;28;20512;-66
2023/08/09 01:24:44;;;;;;;8.10;7.40;;;15.50;99.90;;;;;;5091060;28;20511;-66
2023/08/09 01:27:10;;;;;;;7.60;6.90;;;15.50;99.90;;;;;;5090057;28;20451;-66
2023/08/09 01:29:38;;;;;;;7.90;7.20;;;15.50;99.90;;;;;;5091132;28;20448;-65
2023/08/09 01:32:05;;;;;;;7.20;6.60;;;15.50;99.90;;;;;;5090703;28;21010;-66
2023/08/09 01:34:33;;;;;;;8.47;7.57;;;15.50;99.90;;;;;;5090873;28;20450;-65
2023/08/09 01:37:04;;;;;;;8.00;6.60;;;15.50;99.90;;;;;;5088809;28;20870;-65
2023/08/09 01:39:35;;;;;;;8.37;7.30;;;15.50;99.90;;;;;;5090673;28;21254;-66
2023/08/09 01:42:04;;;;;;;7.63;6.90;;;15.50;99.90;;;;;;5090521;28;20470;-65
2023/08/09 01:44:31;;;;;;;8.00;7.40;;;15.50;99.90;;;;;;5090728;28;20889;-66
2023/08/09 01:46:58;;;;;;;7.20;6.60;;;15.50;99.90;;;;;;5089874;28;20565;-66
2023/08/09 01:49:26;;;;;;;7.70;6.87;;;15.50;99.90;;;;;;5090408;28;20827;-65
2023/08/09 01:51:53;;;;;;;6.37;5.87;;;15.50;99.90;;;;;;5090389;28;20563;-66
2023/08/09 01:54:20;;;;;;;7.70;7.10;;;15.50;99.90;;;;;;5090435;28;20454;-66
2023/08/09 01:56:47;;;;;;;6.60;6.03;;;15.50;99.90;;;;;;5089572;28;20954;-66
2023/08/09 01:59:16;;;;;;;8.97;7.13;;;15.50;99.90;;;;;;5089923;28;20573;-65
2023/08/09 02:01:43;;;;;;;7.97;7.23;;;15.50;99.90;;;;;;5089845;28;20488;-66
2023/08/09 02:04:10;;;;;;;8.50;7.60;;;15.50;99.90;;;;;;5090199;28;20443;-66
2023/08/09 02:06:38;;;;;;;7.33;6.67;;;15.50;99.90;;;;;;5089520;28;20448;-66
2023/08/09 02:09:06;;;;;;;7.63;6.93;;;15.50;99.90;;;;;;5090259;28;20512;-66
2023/08/09 02:11:33;;;;;;;7.67;6.97;;;15.50;99.90;;;;;;5089728;28;20828;-66
2023/08/09 02:14:00;;;;;;;7.13;6.43;;;15.50;99.90;;;;;;5090047;28;20455;-66
2023/08/09 02:16:28;;;;;;;7.43;6.47;;;15.50;99.90;;;;;;5089068;28;20546;-66
2023/08/09 02:18:55;;;;;;;7.10;6.50;;;15.50;99.90;;;;;;5089897;28;20495;-66
2023/08/09 02:21:22;;;;;;;7.40;6.67;;;15.50;99.90;;;;;;5089707;28;20466;-66
2023/08/09 02:23:49;;;;;;;7.93;7.33;;;15.50;99.90;;;;;;5089591;28;20473;-66
2023/08/09 02:26:18;;;;;;;7.77;7.03;;;15.50;99.90;;;;;;5088816;28;20490;-66
2023/08/09 02:28:45;;;;;;;8.10;7.40;;;15.40;99.90;;;;;;5089434;28;20998;-66
2023/08/09 02:31:12;;;;;;;9.10;8.27;;;15.40;99.90;;;;;;5089420;28;20466;-66
2023/08/09 02:33:40;;;;;;;7.33;6.73;;;15.40;99.90;;;;;;5089793;28;20533;-66
2023/08/09 02:36:07;;;;;;;6.80;6.20;;;15.40;99.90;;;;;;5087573;28;20509;-66
2023/08/09 02:38:34;;;;;;;8.00;7.20;;;15.40;99.90;;;;;;5089380;28;20537;-66
2023/08/09 02:41:01;;;;;;;7.60;7.07;;;15.40;99.90;;;;;;5089315;28;20984;-66
2023/08/09 02:43:28;;;;;;;8.17;6.30;;;15.40;99.90;;;;;;5089607;28;20804;-66
2023/08/09 02:45:56;;;;;;;8.10;7.07;;;15.40;99.90;;;;;;5089036;28;20461;-66
2023/08/09 02:48:24;;;;;;;7.83;7.13;;;15.40;99.90;;;;;;5089082;28;20491;-67
2023/08/09 02:50:52;;;;;;;7.40;6.80;;;15.40;99.90;;;;;;5089267;28;20458;-66
2023/08/09 02:53:19;;;;;;;7.30;6.37;;;15.40;99.90;;;;;;5089192;28;21084;-66
2023/08/09 02:55:46;;;;;;;7.67;6.97;;;15.40;99.90;;;;;;5088320;28;20533;-67
2023/08/09 02:58:14;;;;;;;5.93;5.43;;;15.40;99.90;;;;;;5088845;28;20451;-66
2023/08/09 03:00:40;;;;;;;6.47;5.97;;;15.50;99.90;;;;;;5088760;28;21007;-66
2023/08/09 03:03:07;;;;;;;6.53;6.03;;;15.50;99.90;;;;;;5089208;28;20457;-66
2023/08/09 03:05:34;;;;;;;7.60;7.00;;;15.40;99.90;;;;;;5089310;28;20913;-66
2023/08/09 03:08:03;;;;;;;6.67;5.40;;;15.40;99.90;;;;;;5088575;28;20450;-66
2023/08/09 03:10:30;;;;;;;6.17;5.57;;;15.40;99.90;;;;;;5089161;28;20862;-66
2023/08/09 03:12:57;;;;;;;6.30;5.37;;;15.40;99.90;;;;;;5088828;28;20462;-66
2023/08/09 03:15:24;;;;;;;7.47;6.40;;;15.40;99.90;;;;;;5088701;28;20447;-66
2023/08/09 03:17:51;;;;;;;7.80;5.73;;;15.40;99.90;;;;;;5088123;28;20458;-66
2023/08/09 03:20:18;;;;;;;6.67;5.97;;;15.40;99.90;;;;;;5088659;28;20567;-66
2023/08/09 03:22:45;;;;;;;6.30;5.70;;;15.40;99.90;;;;;;5088629;28;20836;-66
2023/08/09 03:25:14;;;;;;;6.73;6.10;;;15.40;99.90;;;;;;5088738;28;20540;-66
2023/08/09 03:27:41;;;;;;;6.50;5.90;;;15.40;99.90;;;;;;5088104;28;20542;-66
2023/08/09 03:30:10;;;;;;;6.80;6.20;;;15.40;99.90;;;;;;5088665;28;20455;-66
2023/08/09 03:32:37;;;;;;;6.43;5.83;;;15.40;99.90;;;;;;5088794;28;20553;-66
2023/08/09 03:35:05;;;;;;;6.63;6.10;;;15.40;99.90;;;;;;5087663;28;20550;-66
2023/08/09 03:37:32;;;;;;;5.27;4.77;;;15.40;99.90;;;;;;5088083;28;20533;-66
2023/08/09 03:39:59;;;;;;;6.30;5.43;;;15.40;99.90;;;;;;5085541;28;20581;-67
2023/08/09 03:42:27;;;;;;;5.97;5.50;;;15.40;99.90;;;;;;5088113;28;20472;-66
2023/08/09 03:44:54;;;;;;;7.13;5.80;;;15.40;99.90;;;;;;5088396;28;20457;-66
2023/08/09 03:47:21;;;;;;;11.90;6.43;;;15.40;99.90;;;;;;5087644;28;20963;-66
2023/08/09 03:49:47;;;;;;;6.63;5.90;;;15.40;99.90;;;;;;5087831;28;20538;-67
2023/08/09 03:52:14;;;;;;;11.10;7.73;;;15.40;99.90;;;;;;5088034;28;21073;-66
2023/08/09 03:54:41;;;;;;;6.23;5.67;;;15.40;99.90;;;;;;5088387;28;20458;-66
2023/08/09 03:57:08;;;;;;;9.00;5.50;;;15.40;99.90;;;;;;5087652;28;20536;-66
2023/08/09 03:59:38;;;;;;;5.73;5.27;;;15.40;99.90;;;;;;5088051;28;20490;-66
2023/08/09 04:02:05;;;;;;;6.33;5.63;;;15.40;99.90;;;;;;5087974;28;20474;-66
2023/08/09 04:04:32;;;;;;;5.70;5.03;;;15.40;99.90;;;;;;5088189;28;20473;-66
2023/08/09 04:06:59;;;;;;;7.20;5.87;;;15.40;99.90;;;;;;5087444;28;20453;-66
2023/08/09 04:09:26;;;;;;;5.77;5.20;;;15.30;99.90;;;;;;5091254;28;20455;-66
2023/08/09 04:11:53;;;;;;;5.40;4.83;;;15.40;99.90;;;;;;5092369;28;20476;-66
2023/08/09 04:14:20;;;;;;;5.40;4.97;;;15.40;99.90;;;;;;5092241;28;20888;-66
2023/08/09 04:16:48;;;;;;;6.10;5.57;;;15.30;99.90;;;;;;5091377;28;20960;-66
2023/08/09 04:19:15;;;;;;;4.90;4.50;;;15.40;99.90;;;;;;5092066;28;21187;-66
2023/08/09 04:21:42;;;;;;;5.50;5.10;;;15.30;99.90;;;;;;5092284;28;20552;-66
2023/08/09 04:24:10;;;;;;;4.87;4.40;;;15.30;99.90;;;;;;5092209;28;20454;-66
2023/08/09 04:26:37;;;;;;;6.50;4.97;;;15.40;99.90;;;;;;5091345;28;20952;-67
2023/08/09 04:29:05;;;;;;;5.30;4.90;;;15.40;99.90;;;;;;5092228;28;20550;-67
2023/08/09 04:31:31;;;;;;;6.60;5.87;;;15.40;99.90;;;;;;5092038;28;20567;-67
2023/08/09 04:34:00;;;;;;;5.40;5.00;;;15.40;99.90;;;;;;5103021;28;20542;-66
2023/08/09 04:36:26;;;;;;;5.17;4.60;;;15.30;99.90;;;;;;5104087;28;20445;-66
2023/08/09 04:38:53;;;;;;;5.20;4.70;;;15.40;99.90;;;;;;5100086;28;20457;-66
2023/08/09 04:41:20;;;;;;;5.57;5.07;;;15.40;99.90;;;;;;5091923;28;20530;-66
2023/08/09 04:43:47;;;;;;;6.00;5.50;;;15.40;99.90;;;;;;5091561;28;20450;-66
2023/08/09 04:46:16;;;;;;;5.27;4.87;;;15.40;99.90;;;;;;5091044;28;20525;-66
2023/08/09 04:48:43;;;;;;;5.43;4.70;;;15.40;99.90;;;;;;5091657;28;20452;-66
2023/08/09 04:51:12;;;;;;;5.10;4.70;;;15.50;99.90;;;;;;5091357;28;20545;-66
2023/08/09 04:53:40;;;;;;;10.07;5.80;;;15.50;99.90;;;;;;5101200;28;20863;-66
2023/08/09 04:56:07;;;;;;;5.90;5.40;;;15.50;99.90;;;;;;5111286;28;20476;-67
2023/08/09 04:58:34;;;;;;;5.87;5.40;;;15.50;99.90;;;;;;5112015;28;20452;-66
2023/08/09 05:01:01;;;;;;;6.63;5.10;;;15.50;99.90;;;;;;5111480;28;20486;-67
2023/08/09 05:03:27;;;;;;;7.13;6.50;;;15.60;99.90;;;;;;5112038;28;20462;-66
2023/08/09 05:05:54;;;;;;;8.30;5.23;;;15.60;99.90;;;;;;5111140;28;20834;-67
2023/08/09 05:08:23;;;;;;;5.40;4.63;;;15.60;99.90;;;;;;5111523;28;21015;-66
2023/08/09 05:10:50;;;;;;;5.20;4.70;;;15.60;99.90;;;;;;5111642;28;21059;-66
2023/08/09 05:13:16;;;;;;;6.33;5.23;;;15.60;99.90;;;;;;5111637;28;20447;-66
2023/08/09 05:15:43;;;;;;;8.90;5.37;;;15.60;99.90;;;;;;5111462;28;20455;-66
2023/08/09 05:18:10;;;;;;;5.87;5.33;;;15.60;99.90;;;;;;5110762;28;20446;-66
2023/08/09 05:20:37;;;;;;;4.83;4.40;;;15.60;99.90;;;;;;5110483;28;20572;-67
2023/08/09 05:23:04;;;;;;;6.00;4.50;;;15.60;99.90;;;;;;5099263;28;20442;-66
2023/08/09 05:25:32;;;;;;;7.53;4.97;;;15.70;99.90;;;;;;5108186;28;20544;-66
2023/08/09 05:27:59;;;;;;;5.40;5.00;;;15.70;99.90;;;;;;5110783;28;20533;-67
2023/08/09 05:30:26;;;;;;;8.87;6.03;;;15.70;99.90;;;;;;5111356;28;20452;-66
2023/08/09 05:32:52;;;;;;;4.87;4.37;;;15.70;99.90;;;;;;5107594;28;20849;-66
2023/08/09 05:35:19;;;;;;;5.10;4.20;;;15.70;99.90;;;;;;5088011;28;20542;-66
2023/08/09 05:37:46;;;;;;;5.43;4.93;;;15.70;99.90;;;;;;5089998;28;20449;-66
2023/08/09 05:40:14;;;;;;;6.27;5.77;;;15.70;99.90;;;;;;5090007;28;20486;-67
2023/08/09 05:42:42;;;;;;;5.47;4.93;;;15.70;99.90;;;;;;5090579;28;20466;-67
2023/08/09 05:45:09;;;;;;;6.33;5.40;;;15.70;99.90;;;;;;5090397;28;20454;-67
2023/08/09 05:47:36;;;;;;;5.70;4.63;;;15.70;99.90;;;;;;5089489;28;20550;-67
2023/08/09 05:50:04;;;;;;;5.40;4.97;;;15.70;99.90;;;;;;5090279;28;21023;-67
2023/08/09 05:52:30;;;;;;;6.13;5.63;;;15.80;99.90;;;;;;5090472;28;20877;-67
2023/08/09 05:54:57;;;;;;;5.03;4.63;;;15.80;99.90;;;;;;5079850;28;20483;-67
2023/08/09 05:57:25;;;;;;;5.17;3.73;;;15.80;99.90;;;;;;5068452;28;20459;-67
2023/08/09 05:59:54;;;;;;;4.90;4.50;;;15.80;99.90;;;;;;5070063;28;21021;-67
2023/08/09 06:02:22;;;;;;;4.20;3.87;;;15.80;99.90;;;;;;5069915;28;20586;-67
2023/08/09 06:04:49;;;;;;;6.13;5.53;;;15.90;99.90;;;;;;5070132;28;20459;-67
2023/08/09 06:07:16;;;;;;;5.10;4.70;;;15.90;99.90;;;;;;5069056;28;20483;-67
2023/08/09 06:09:43;;;;;;;5.17;4.70;;;15.90;99.90;;;;;;5069723;28;20451;-67
2023/08/09 06:12:10;;;;;;;4.37;4.00;;;15.90;99.90;;;;;;5069247;28;20479;-67
2023/08/09 06:14:37;;;;;;;5.00;4.60;;;15.80;99.90;;;;;;5072848;28;21036;-67
2023/08/09 06:17:05;;;;;;;6.80;4.57;;;15.80;99.90;;;;;;5100757;28;20469;-67
2023/08/09 06:19:32;;;;;;;5.63;5.13;;;15.80;99.90;;;;;;5110056;28;20536;-67
2023/08/09 06:21:59;;;;;;;5.47;4.97;;;15.90;99.90;;;;;;5110098;28;21019;-67
2023/08/09 06:24:26;;;;;;;5.13;4.63;;;15.90;99.90;;;;;;5106866;22;20502;-72
2023/08/09 06:26:53;;;;;;;7.90;4.87;;;16.00;99.90;;;;;;5060285;28;20560;-71
2023/08/09 06:29:20;;;;;;;5.90;5.00;;;16.10;99.90;;;;;;5071507;28;20453;-72
2023/08/09 06:31:47;;;;;;;5.40;4.97;;;16.10;99.90;;;;;;5069399;28;20440;-72
2023/08/09 06:34:15;;;;;;;5.50;4.90;;;16.20;99.90;;;;;;5069418;28;20550;-72
2023/08/09 06:36:42;;;;;;;5.90;4.80;;;16.20;99.90;;;;;;5068646;28;20444;-72
2023/08/09 06:39:09;;;;;;;6.03;5.47;;;16.30;99.90;;;;;;5067852;28;20556;-72
2023/08/09 06:41:36;;;;;;;5.33;4.87;;;16.30;99.90;;;;;;5069128;28;20911;-72
2023/08/09 06:44:03;;;;;;;6.53;4.90;;;16.40;99.90;;;;;;5069121;28;20465;-72
2023/08/09 06:46:29;;;;;;;6.13;4.90;;;16.40;99.90;;;;;;5068801;28;20480;-72
2023/08/09 06:48:56;;;;;;;5.03;4.70;;;16.50;99.90;;;;;;5068235;28;20531;-72
2023/08/09 06:51:24;;;;;;;5.70;5.23;;;16.50;99.90;;;;;;5069494;28;20528;-72
2023/08/09 06:53:51;;;;;;;7.80;5.20;;;16.50;99.90;;;;;;5069203;28;20474;-71
2023/08/09 06:56:18;;;;;;;6.33;4.80;;;16.50;99.90;;;;;;5068601;28;20488;-71
2023/08/09 06:58:45;;;;;;;5.27;4.77;;;16.60;99.90;;;;;;5068768;28;20463;-72
2023/08/09 07:01:12;;;;;;;4.67;4.30;;;16.60;99.90;;;;;;5068942;28;20523;-71
2023/08/09 07:03:39;;;;;;;4.30;4.00;;;16.50;99.90;;;;;;5069217;28;20473;-71
2023/08/09 07:06:06;;;;;;;4.47;4.13;;;16.50;99.90;;;;;;5068254;28;20443;-72
2023/08/09 07:08:34;;;;;;;4.83;4.40;;;16.50;99.90;;;;;;5068861;28;20447;-71
2023/08/09 07:11:01;;;;;;;5.00;4.60;;;16.50;99.90;;;;;;5069024;28;20526;-71
2023/08/09 07:13:27;;;;;;;5.07;4.57;;;16.60;99.90;;;;;;5069057;28;20459;-72
2023/08/09 07:15:54;;;;;;;5.50;5.00;;;16.50;99.90;;;;;;5068659;28;20590;-73
2023/08/09 07:18:22;;;;;;;10.50;5.10;;;16.60;99.90;;;;;;5068616;28;21235;-72
2023/08/09 07:20:49;;;;;;;5.20;4.50;;;16.60;99.90;;;;;;5068694;28;20505;-73
2023/08/09 07:23:15;;;;;;;4.87;4.03;;;16.60;99.90;;;;;;5068433;28;20493;-72
2023/08/09 07:25:43;;;;;;;5.37;4.87;;;16.70;99.90;;;;;;5068744;28;20457;-72
2023/08/09 07:28:11;;;;;;;4.80;4.40;;;16.70;99.90;;;;;;5067916;28;20635;-73
2023/08/09 07:30:38;;;;;;;5.43;4.93;;;16.80;99.90;;;;;;5068644;28;20447;-72
2023/08/09 07:33:05;;;;;;;6.60;5.17;;;16.90;99.90;;;;;;5068480;28;20477;-72
2023/08/09 07:35:33;;;;;;;4.47;4.17;;;16.90;99.90;;;;;;5068444;28;20460;-73
2023/08/09 07:38:01;;;;;;;4.77;4.37;;;17.00;99.90;;;;;;5068138;28;20532;-71
2023/08/09 07:40:28;;;;;;;4.57;4.17;;;17.00;99.90;;;;;;5068755;28;20500;-70
2023/08/09 07:42:58;;;;;;;5.23;4.70;;;17.00;99.90;;;;;;5068142;28;20476;-71
2023/08/09 07:45:25;;;;;;;5.23;4.63;;;16.90;99.90;;;;;;5068531;28;20457;-71
2023/08/09 07:47:52;;;;;;;6.57;5.97;;;16.80;99.90;;;;;;5066412;28;20532;-71
2023/08/09 07:50:20;;;;;;;6.50;4.47;;;16.70;99.90;;;;;;5067269;28;20556;-70
2023/08/09 07:52:48;;;;;;;9.00;5.97;;;16.70;99.90;;;;;;5068011;28;20477;-70
2023/08/09 07:55:14;;;;;;;5.30;4.83;;;16.60;99.90;;;;;;5068324;28;20448;-71
2023/08/09 07:57:41;;;;;;;5.47;4.97;;;16.60;99.90;;;;;;5067366;28;20450;-71
2023/08/09 08:00:12;;;;;;;4.93;4.53;;;16.60;99.90;;;;;;5068226;28;20459;-71
2023/08/09 08:02:39;;;;;;;5.10;4.70;;;16.60;99.90;;;;;;5066175;28;20487;-70
2023/08/09 08:05:07;;;;;;;7.90;5.63;;;16.60;99.90;;;;;;5068273;28;20460;-71
2023/08/09 08:07:34;;;;;;;6.00;5.53;;;16.60;99.90;;;;;;5067818;28;21008;-71
2023/08/09 08:10:01;;;;;;;4.60;3.50;;;16.60;99.90;;;;;;5068374;28;20563;-70
2023/08/09 08:12:29;;;;;;;7.90;5.37;;;16.70;99.90;;;;;;5068203;28;20541;-71
2023/08/09 08:14:55;;;;;;;6.30;5.80;;;16.70;99.90;;;;;;5068391;28;20549;-72
2023/08/09 08:17:24;;;;;;;5.40;4.90;;;16.70;99.90;;;;;;5067385;28;20448;-72
2023/08/09 08:19:50;;;;;;;6.33;5.83;;;16.70;99.90;;;;;;5068308;28;20561;-72
2023/08/09 08:22:18;;;;;;;6.77;6.07;;;16.70;99.90;;;;;;5067952;28;21039;-71
2023/08/09 08:24:45;;;;;;;6.17;5.57;;;16.70;99.90;;;;;;5067646;28;20868;-71
2023/08/09 08:27:12;;;;;;;5.13;4.77;;;16.80;99.90;;;;;;5067227;28;21019;-71
2023/08/09 08:29:39;;;;;;;7.30;5.90;;;16.80;99.90;;;;;;5067979;28;21171;-72
2023/08/09 08:32:06;;;;;;;2.40;2.30;;;16.80;99.90;;;;;;5068047;28;20443;-71
2023/08/09 08:34:35;;;;;;;3.07;1.63;;;16.70;99.90;;;;;;5067882;28;21334;-71
2023/08/09 08:37:02;;;;;;;1.63;1.33;;;16.60;99.90;;;;;;5067437;28;20827;-71
2023/08/09 08:39:29;;;;;;;1.43;1.37;;;16.40;99.90;;;;;;5067950;28;20451;-71
2023/08/09 08:41:57;;;;;;;0.97;0.97;;;16.30;99.90;;;;;;5067853;28;20491;-70
2023/08/09 08:44:24;;;;;;;1.80;1.27;;;16.20;99.90;;;;;;5067915;28;20468;-70
2023/08/09 08:46:51;;;;;;;1.73;1.63;;;16.10;99.90;;;;;;5067212;28;20450;-70
2023/08/09 08:49:20;;;;;;;1.37;1.27;;;15.90;99.90;;;;;;5067900;28;20535;-70
2023/08/09 08:51:52;;;;;;;1.57;0.80;;;15.90;99.90;;;;;;5067756;28;20440;-70
2023/08/09 08:54:20;;;;;;;1.20;1.10;;;15.80;99.90;;;;;;5069154;28;20555;-70
2023/08/09 08:56:48;;;;;;;1.50;1.40;;;15.80;99.90;;;;;;5070869;28;20969;-70
2023/08/09 08:59:16;;;;;;;1.53;1.07;;;15.80;99.90;;;;;;5071527;28;20545;-70
2023/08/09 09:01:44;;;;;;;1.60;0.90;;;15.70;99.90;;;;;;5071281;28;20595;-70
2023/08/09 09:04:11;;;;;;;1.43;1.33;;;15.70;99.90;;;;;;5071323;28;20471;-71
2023/08/09 09:06:38;;;;;;;0.90;0.90;;;15.70;99.90;;;;;;5070691;28;20534;-71
2023/08/09 09:09:13;;;;;;;0.83;0.83;;;15.70;99.90;;;;;;5071479;28;20978;-70
2023/08/09 09:11:40;;;;;;;0.93;0.90;;;15.70;99.90;;;;;;5071393;28;20534;-70
2023/08/09 09:14:11;;;;;;;1.13;1.03;;;15.60;99.90;;;;;;5071181;28;20471;-70
2023/08/09 09:16:38;;;;;;;1.87;1.10;;;15.50;99.90;;;;;;5070314;28;20459;-71
2023/08/09 09:19:05;;;;;;;1.00;1.00;;;15.60;99.90;;;;;;5070999;28;20535;-70
2023/08/09 09:21:34;;;;;;;3.30;1.13;;;15.50;99.90;;;;;;5071039;28;20583;-70
2023/08/09 09:24:03;;;;;;;2.30;1.40;;;15.60;99.90;;;;;;5070889;28;20487;-70
2023/08/09 09:26:31;;;;;;;1.77;1.17;;;15.60;99.90;;;;;;5069980;28;20451;-70
2023/08/09 09:28:59;;;;;;;1.60;1.07;;;15.60;99.90;;;;;;5070861;28;20451;-70
2023/08/09 09:31:35;;;;;;;2.47;1.50;;;15.60;99.90;;;;;;5070844;28;20449;-70
2023/08/09 09:34:02;;;;;;;1.00;1.00;;;15.70;99.90;;;;;;5049883;28;20515;-70
2023/08/09 09:36:29;;;;;;;1.00;0.80;;;15.70;99.90;;;;;;5049646;28;20535;-69
2023/08/09 09:38:57;;;;;;;3.27;0.90;;;15.80;99.90;;;;;;5070102;28;20440;-70
2023/08/09 09:41:23;;;;;;;1.80;1.03;;;15.80;99.90;;;;;;5070042;28;20944;-70
2023/08/09 09:43:52;;;;;;;0.93;0.87;;;15.80;99.90;;;;;;5069345;28;21209;-70
2023/08/09 09:46:20;;;;;;;1.80;1.20;;;15.90;99.90;;;;;;5069204;28;20542;-70
2023/08/09 09:48:49;;;;;;;1.37;1.17;;;15.90;99.90;;;;;;5069817;28;20538;-70
2023/08/09 09:51:18;;;;;;;2.73;1.67;;;15.90;99.90;;;;;;5069992;28;20444;-70
2023/08/09 09:53:45;;;;;;;1.33;1.23;;;16.00;99.90;;;;;;5069257;28;20468;-70
2023/08/09 09:56:12;;;;;;;1.70;1.60;;;16.00;99.90;;;;;;5068888;28;20932;-70
2023/08/09 09:58:39;;;;;;;2.10;1.60;;;16.10;99.90;;;;;;5069756;28;20562;-70
2023/08/09 10:01:10;;;;;;;1.40;1.20;;;16.10;99.90;;;;;;5069617;28;20485;-70
2023/08/09 10:03:39;;;;;;;2.23;2.03;;;16.20;99.90;;;;;;5069462;28;20495;-70
2023/08/09 10:06:13;;;;;;;1.10;1.10;;;16.30;99.90;;;;;;5068912;28;20455;-70
2023/08/09 10:08:42;;;;;;;0.77;0.77;;;16.30;99.90;;;;;;5069219;28;20491;-70
2023/08/09 10:11:09;;;;;;;0.90;0.73;;;16.40;99.90;;;;;;5069169;28;20530;-70
2023/08/09 10:13:39;;;;;;;1.43;1.30;;;16.30;99.90;;;;;;5069270;28;20551;-70
2023/08/09 10:16:10;;;;;;;1.20;1.10;;;16.40;99.90;;;;;;5068839;28;20452;-70
2023/08/09 10:18:41;;;;;;;1.10;1.10;;;16.40;99.90;;;;;;5069477;28;21012;-69
2023/08/09 10:21:11;;;;;;;1.50;1.30;;;16.40;99.90;;;;;;5068837;28;20489;-70
2023/08/09 10:23:38;;;;;;;1.30;1.20;;;16.30;99.90;;;;;;5068370;28;21180;-70
2023/08/09 10:26:05;;;;;;;1.00;1.00;;;16.40;99.90;;;;;;5068825;28;20447;-70
2023/08/09 10:28:50;;;;;;;1.60;1.50;;;16.40;99.90;;;;;;5069566;28;20482;-70
2023/08/09 10:31:53;;;;;;;1.40;1.30;;;16.50;99.90;;;;;;5068456;28;20469;-69
2023/08/09 10:34:21;;;;;;;3.03;2.80;;;16.50;99.90;;;;;;5064087;28;20501;-72
2023/08/09 10:36:53;;;;;;;1.00;1.00;;;16.60;99.90;;;;;;5067634;28;20452;-72
2023/08/09 10:39:21;;;;;;;1.40;1.30;;;16.70;99.90;;;;;;5069129;28;20547;-72
2023/08/09 10:42:02;;;;;;;1.13;1.10;;;16.80;99.90;;;;;;5068887;28;20830;-72
2023/08/09 10:44:41;;;;;;;1.20;1.07;;;16.90;99.90;;;;;;5065495;28;20483;-71
2023/08/09 10:47:11;;;;;;;2.43;1.40;;;16.90;99.90;;;;;;5067757;28;20539;-72
2023/08/09 10:50:00;;;;;;;2.47;2.30;;;17.00;99.90;;;;;;5066950;28;20461;-70
2023/08/09 10:52:37;;;;;;;3.40;1.87;;;17.00;99.90;;;;;;5066960;28;20562;-71
2023/08/09 10:55:37;;;;;;;2.23;1.90;;;17.10;99.90;;;;;;5060706;28;20816;-70
2023/08/09 10:58:04;;;;;;;1.80;1.70;;;17.20;99.90;;;;;;5066334;28;20453;-73
2023/08/09 11:00:41;;;;;;;2.20;1.90;;;17.30;99.90;;;;;;5065046;28;20544;-71
2023/08/09 11:03:12;;;;;;;1.80;1.70;;;17.40;99.90;;;;;;5065268;28;20496;-71
2023/08/09 11:05:39;;;;;;;1.60;1.50;;;17.50;99.90;;;;;;5066652;28;20457;-72
2023/08/09 11:08:17;;;;;;;1.60;1.47;;;17.60;99.90;;;;;;5066817;28;20472;-74
2023/08/09 11:10:44;;;;;;;1.50;1.40;;;17.60;99.90;;;;;;5064471;28;20468;-74
2023/08/09 11:13:13;;;;;;;2.20;1.80;;;17.70;99.90;;;;;;5067172;28;21010;-74
2023/08/09 11:15:43;;;;;;;1.80;1.70;;;17.80;99.90;;;;;;5066744;28;20456;-73
2023/08/09 11:18:11;;;;;;;1.90;1.80;;;17.90;99.90;;;;;;5065334;28;21285;-72
2023/08/09 11:20:38;;;;;;;1.93;1.83;;;18.00;99.90;;;;;;5066843;28;20466;-73
2023/08/09 11:23:05;;;;;;;3.13;2.30;;;18.10;99.90;;;;;;5066822;28;21030;-72
2023/08/09 11:25:33;;;;;;;2.10;1.90;;;18.20;99.90;;;;;;5066649;28;21213;-72
2023/08/09 11:28:01;;;;;;;1.80;1.70;;;18.30;99.90;;;;;;5065341;28;20455;-73
2023/08/09 11:30:31;;;;;;;2.20;2.10;;;18.40;99.90;;;;;;5064879;28;20455;-73
2023/08/09 11:32:59;;;;;;;2.00;1.27;;;18.50;99.90;;;;;;5059496;28;20474;-73
2023/08/09 11:35:30;;;;;;;1.77;1.67;;;18.60;99.90;;;;;;5066128;28;20500;-72
2023/08/09 11:37:58;;;;;;;1.43;1.33;;;18.70;99.90;;;;;;5064544;28;20458;-72
2023/08/09 11:40:25;;;;;;;1.90;1.50;;;18.80;99.90;;;;;;5069299;28;21052;-72
2023/08/09 11:42:59;;;;;;;2.30;1.40;;;18.90;99.90;;;;;;5066503;28;20522;-72
2023/08/09 11:45:26;;;;;;;1.60;1.50;;;19.00;99.90;;;;;;5066293;28;20465;-71
2023/08/09 11:47:55;;;;;;;1.40;1.30;;;19.10;99.90;;;;;;5066299;28;20459;-72
2023/08/09 11:50:24;;;;;;;2.50;1.47;;;19.30;99.90;;;;;;5065396;28;20466;-72
2023/08/09 11:52:56;;;;;;;1.73;1.30;;;19.40;99.90;;;;;;5065086;28;21182;-72
2023/08/09 11:55:25;;;;;;;1.00;1.00;;;19.50;99.90;;;;;;5065789;28;20566;-72
2023/08/09 11:57:52;;;;;;;2.33;1.80;;;19.60;99.90;;;;;;5065859;28;20447;-73
2023/08/09 12:00:19;;;;;;;1.53;1.23;;;19.80;99.90;;;;;;5067796;28;20524;-73
2023/08/09 12:02:49;;;;;;;1.83;1.73;;;19.90;99.90;;;;;;5066461;28;20877;-74
2023/08/09 12:05:16;;;;;;;3.43;1.50;;;20.10;99.90;;;;;;5061666;28;20460;-71
2023/08/09 12:07:44;;;;;;;0.93;0.93;;;20.30;99.90;;;;;;5064914;28;20446;-71
2023/08/09 12:10:14;;;;;;;1.20;1.10;;;20.30;99.90;;;;;;5065142;28;20952;-71
2023/08/09 12:12:43;;;;;;;1.30;1.20;;;20.20;99.90;;;;;;5065763;28;20454;-70
2023/08/09 12:15:11;;;;;;;3.27;1.20;;;20.10;99.90;;;;;;5065839;28;20455;-71
2023/08/09 12:17:38;;;;;;;1.70;1.60;;;20.10;99.90;;;;;;5065367;28;20450;-70
2023/08/09 12:20:09;;;;;;;1.50;1.40;;;20.00;99.90;;;;;;5066278;28;20479;-70
2023/08/09 12:22:37;;;;;;;1.03;1.03;;;19.90;99.90;;;;;;5066143;28;20487;-71
2023/08/09 12:25:04;;;;;;;2.07;1.67;;;19.90;99.90;;;;;;5065879;28;20538;-72
2023/08/09 12:27:33;;;;;;;1.00;1.00;;;19.90;99.90;;;;;;5065647;28;20448;-71
2023/08/09 12:30:00;;;;;;;1.67;1.20;;;19.90;99.90;;;;;;5068559;28;20472;-72
2023/08/09 12:32:28;;;;;;;1.53;1.43;;;19.90;99.90;;;;;;5069967;28;20453;-72
2023/08/09 12:34:55;;;;;;;1.40;1.37;;;19.90;99.90;;;;;;5069510;28;20447;-71
2023/08/09 12:37:22;;;;;;;1.17;1.07;;;19.90;99.90;;;;;;5069340;28;20469;-71
2023/08/09 12:39:49;;;;;;;1.90;1.70;;;19.90;99.90;;;;;;5070093;28;20530;-72
2023/08/09 12:42:16;;;;;;;5.20;1.30;;;19.90;99.90;;;;;;5070201;28;20569;-72
2023/08/09 12:44:44;;;;;;;1.43;1.33;;;19.90;99.90;;;;;;5069507;28;20463;-71
2023/08/09 12:47:11;;;;;;;3.40;1.67;;;19.90;99.90;;;;;;5068823;28;20531;-71
2023/08/09 12:49:38;;;;;;;1.43;1.33;;;19.80;99.90;;;;;;5070098;28;20530;-71
2023/08/09 12:52:05;;;;;;;1.47;1.33;;;19.70;99.90;;;;;;5069662;28;20951;-72